Time;durP1;ratioP1;P1;durP2;ratioP2;P2;SDS_P1;SDS_P2;PMS_P1;PMS_P2;Temp;Humidity;BMP_temperature;BMP_pressure;BME280_temperature;BME280_humidity;BME280_pressure;Samples;Min_cycle;Max_cycle;Signal;HPM_P1;HPM_P2
2022/10/24 00:02:14;;;;;;;17.87;12.53;;;;;;;11.78;85.84;95555.94;5062627;28;20661;-83
2022/10/24 00:04:41;;;;;;;20.47;12.37;;;;;;;11.48;86.09;95516.72;5054917;28;20174;-83
2022/10/24 00:07:08;;;;;;;18.17;11.07;;;;;;;11.42;85.81;95509.59;5054901;28;20179;-82
2022/10/24 00:09:34;;;;;;;21.20;12.13;;;;;;;11.73;85.72;95553.88;5054632;28;20159;-83
2022/10/24 00:11:59;;;;;;;18.80;10.70;;;;;;;11.31;85.81;95497.00;5054811;28;20199;-83
2022/10/24 00:14:25;;;;;;;19.67;11.00;;;;;;;11.68;86.04;95558.94;5054193;28;20174;-83
2022/10/24 00:16:51;;;;;;;25.43;11.40;;;;;;;11.41;86.04;95529.09;5053605;28;20638;-83
2022/10/24 00:19:16;;;;;;;20.53;11.10;;;;;;;11.62;85.93;95551.81;5053177;28;20630;-83
2022/10/24 00:21:42;;;;;;;17.30;11.23;;;;;;;11.45;86.06;95527.66;5054341;28;20622;-83
2022/10/24 00:24:08;;;;;;;24.53;12.50;;;;;;;11.60;86.00;95548.56;5053836;28;20663;-83
2022/10/24 00:26:34;;;;;;;23.33;12.10;;;;;;;11.61;86.25;95547.56;5059254;28;20163;-81
2022/10/24 00:28:59;;;;;;;21.73;12.40;;;;;;;11.57;86.13;95533.97;5078879;28;20672;-82
2022/10/24 00:31:25;;;;;;;24.53;12.17;;;;;;;11.57;85.89;95544.53;5066584;28;20206;-83
2022/10/24 00:33:51;;;;;;;28.00;12.97;;;;;;;11.49;85.80;95530.72;5080302;28;20253;-83
2022/10/24 00:36:20;;;;;;;27.77;14.93;;;;;;;11.55;86.04;95536.00;5057220;28;20232;-83
2022/10/24 00:38:45;;;;;;;40.83;17.67;;;;;;;11.14;85.76;95477.31;5077590;28;20185;-83
2022/10/24 00:41:17;;;;;;;31.43;14.97;;;;;;;11.52;85.68;95535.56;5062063;28;20163;-82
2022/10/24 00:43:42;;;;;;;35.37;16.17;;;;;;;11.54;85.33;95539.66;5060700;28;20174;-83
2022/10/24 00:46:08;;;;;;;36.50;15.20;;;;;;;11.35;85.45;95512.22;5062193;28;20171;-83
2022/10/24 00:48:49;;;;;;;33.80;14.50;;;;;;;11.46;85.68;95545.09;5051934;28;20615;-83
2022/10/24 00:51:17;;;;;;;30.27;14.07;;;;;;;11.43;85.73;95540.22;5053236;28;20255;-83
2022/10/24 00:53:46;;;;;;;31.23;14.43;;;;;;;11.42;85.73;95543.84;5053094;28;20712;-83
2022/10/24 00:56:15;;;;;;;28.73;14.03;;;;;;;11.32;85.64;95532.91;5068558;28;20203;-83
2022/10/24 00:58:43;;;;;;;29.07;13.17;;;;;;;11.38;85.54;95547.91;5053502;28;20201;-83
2022/10/24 01:01:09;;;;;;;28.37;13.40;;;;;;;11.38;85.50;95550.56;5053096;28;20159;-83
2022/10/24 01:03:34;;;;;;;28.37;13.03;;;;;;;10.94;85.43;95490.41;5052964;28;20167;-83
2022/10/24 01:06:24;;;;;;;24.50;12.63;;;;;;;11.29;85.78;95549.09;5068551;28;20221;-82
2022/10/24 01:08:50;;;;;;;33.57;14.10;;;;;;;11.29;85.40;95543.84;5053063;28;20627;-83
2022/10/24 01:12:08;;;;;;;29.93;12.90;;;;;;;11.25;85.91;95548.69;5054637;28;20224;-83
2022/10/24 01:15:15;;;;;;;20.57;9.60;;;;;;;11.19;85.84;95543.38;4979333;28;20704;-83
2022/10/24 01:17:57;;;;;;;22.73;11.40;;;;;;;11.13;85.60;95539.72;4947295;28;20194;-82
2022/10/24 01:20:45;;;;;;;18.70;9.97;;;;;;;11.15;86.23;95550.09;5084392;28;20192;-83
2022/10/24 01:23:26;;;;;;;17.33;9.23;;;;;;;11.14;86.21;95545.81;5041129;28;20231;-83
2022/10/24 01:26:09;;;;;;;14.47;8.30;;;;;;;11.01;87.07;95549.19;5063501;28;20260;-83
2022/10/24 01:29:15;;;;;;;16.73;8.47;;;;;;;11.00;87.11;95552.84;5053650;28;20195;-83
2022/10/24 01:31:56;;;;;;;18.37;9.50;;;;;;;11.00;86.83;95549.38;5051233;28;20194;-83
2022/10/24 01:34:31;;;;;;;13.40;7.60;;;;;;;10.97;87.15;95553.25;5052518;28;20198;-82
2022/10/24 01:37:08;;;;;;;16.37;9.13;;;;;;;10.96;86.92;95547.16;5052772;28;20173;-83
2022/10/24 01:39:43;;;;;;;12.00;7.13;;;;;;;11.00;86.74;95547.56;5052600;28;20182;-83
2022/10/24 01:42:12;;;;;;;12.90;7.77;;;;;;;10.66;86.37;95505.47;5052491;28;20161;-84
2022/10/24 01:44:49;;;;;;;11.97;6.73;;;;;;;10.65;86.77;95502.00;5052377;28;20159;-84
2022/10/24 01:47:21;;;;;;;13.53;8.07;;;;;;;10.47;86.55;95473.56;5052758;28;20170;-84
2022/10/24 01:50:02;;;;;;;13.77;7.77;;;;;;;10.87;86.38;95543.06;5050970;28;20177;-84
2022/10/24 01:52:31;;;;;;;12.03;7.13;;;;;;;10.37;86.39;95470.50;5052733;28;20190;-84
2022/10/24 01:54:57;;;;;;;9.37;6.37;;;;;;;10.73;86.73;95537.91;5052168;28;20229;-84
2022/10/24 01:57:27;;;;;;;11.30;6.10;;;;;;;10.60;86.77;95517.59;5052225;28;20167;-84
2022/10/24 01:59:52;;;;;;;13.43;7.10;;;;;;;10.75;86.95;95549.06;5052658;28;20165;-84
2022/10/24 02:02:23;;;;;;;13.10;7.93;;;;;;;10.41;86.88;95486.69;5067545;28;20261;-84
2022/10/24 02:05:07;;;;;;;13.30;8.10;;;;;;;10.73;87.09;95541.34;5053213;28;20187;-84
2022/10/24 02:07:34;;;;;;;12.97;6.23;;;;;;;10.72;86.65;95550.28;5056508;28;20556;-84
2022/10/24 02:10:06;;;;;;;15.17;7.27;;;;;;;10.70;86.86;95539.13;5060980;28;20227;-85
2022/10/24 02:12:38;;;;;;;11.63;7.23;;;;;;;10.58;86.99;95536.22;5051306;28;20232;-84
2022/10/24 02:15:12;;;;;;;13.00;7.37;;;;;;;10.61;86.79;95540.28;5052752;28;21101;-84
2022/10/24 02:17:38;;;;;;;13.03;7.23;;;;;;;10.60;87.17;95546.56;5052208;28;20155;-84
2022/10/24 02:20:04;;;;;;;14.30;7.70;;;;;;;10.51;87.07;95537.19;5052063;28;20170;-84
2022/10/24 02:22:39;;;;;;;10.10;7.17;;;;;;;10.62;86.70;95549.81;5051927;28;20174;-84
2022/10/24 02:25:10;;;;;;;17.73;9.17;;;;;;;10.57;86.90;95546.94;5050901;28;20634;-84
2022/10/24 02:27:45;;;;;;;12.70;7.60;;;;;;;10.37;87.07;95509.16;5067342;28;20171;-84
2022/10/24 02:30:14;;;;;;;13.17;7.63;;;;;;;10.32;87.05;95501.84;5057779;28;20178;-83
2022/10/24 02:32:48;;;;;;;15.10;8.67;;;;;;;10.44;86.76;95518.72;5062874;28;20198;-82
2022/10/24 02:35:16;;;;;;;14.07;9.10;;;;;;;10.43;86.80;95519.72;5071459;28;20182;-82
2022/10/24 02:37:46;;;;;;;11.80;8.10;;;;;;;10.21;86.99;95482.13;5062612;28;20577;-82
2022/10/24 02:40:15;;;;;;;15.23;8.23;;;;;;;10.33;86.50;95500.03;5064465;28;20180;-84
2022/10/24 02:42:43;;;;;;;15.03;8.97;;;;;;;10.33;86.79;95502.66;5058585;28;20220;-83
2022/10/24 02:45:11;;;;;;;15.07;8.67;;;;;;;10.49;87.33;95544.47;5091292;28;20182;-83
2022/10/24 02:47:39;;;;;;;13.60;8.57;;;;;;;10.27;87.84;95519.22;5066518;28;20178;-83
2022/10/24 02:50:05;;;;;;;14.10;8.70;;;;;;;9.99;87.52;95474.47;5065024;28;20214;-83
2022/10/24 02:52:32;;;;;;;14.80;9.50;;;;;;;10.27;87.70;95529.75;5063944;28;20205;-83
2022/10/24 02:54:57;;;;;;;19.93;9.43;;;;;;;9.92;87.71;95471.78;5061239;28;20218;-83
2022/10/24 02:57:24;;;;;;;15.60;9.13;;;;;;;10.01;87.98;95485.63;5067063;28;20562;-83
2022/10/24 02:59:49;;;;;;;15.97;8.03;;;;;;;10.37;87.90;95538.13;5074759;28;20184;-83
2022/10/24 03:02:14;;;;;;;16.80;7.97;;;;;;;10.13;88.12;95502.47;5073834;28;20266;-83
2022/10/24 03:04:40;;;;;;;20.30;8.27;;;;;;;10.23;87.87;95517.97;5075000;28;20209;-83
2022/10/24 03:07:06;;;;;;;19.10;8.47;;;;;;;10.36;87.99;95544.38;5090699;28;20273;-83
2022/10/24 03:09:32;;;;;;;15.10;8.10;;;;;;;9.99;87.45;95483.16;5075257;28;20162;-83
2022/10/24 03:11:58;;;;;;;20.70;11.50;;;;;;;10.10;87.55;95501.06;5073560;28;20198;-83
2022/10/24 03:14:23;;;;;;;16.63;10.47;;;;;;;10.38;87.16;95532.63;5074872;28;20179;-83
2022/10/24 03:16:48;;;;;;;18.57;11.00;;;;;;;10.41;86.87;95542.78;5068745;28;20175;-82
2022/10/24 03:19:14;;;;;;;19.97;11.47;;;;;;;9.81;86.85;95446.84;5054806;28;20238;-83
2022/10/24 03:21:40;;;;;;;21.90;11.97;;;;;;;10.28;87.24;95521.66;5058819;28;20240;-83
2022/10/24 03:24:06;;;;;;;18.77;11.97;;;;;;;9.93;86.83;95459.47;5065925;28;20170;-86
2022/10/24 03:26:31;;;;;;;28.70;12.23;;;;;;;10.06;87.23;95485.84;5063125;28;20761;-86
2022/10/24 03:28:56;;;;;;;23.83;12.63;;;;;;;9.88;87.48;95465.28;5078062;28;20645;-86
2022/10/24 03:31:22;;;;;;;22.90;12.30;;;;;;;9.99;87.55;95492.88;5071886;28;20194;-84
2022/10/24 03:33:47;;;;;;;26.33;11.73;;;;;;;10.20;87.36;95530.50;5062093;28;21064;-84
2022/10/24 03:36:13;;;;;;;26.17;14.73;;;;;;;10.06;87.60;95507.69;5053752;28;20179;-83
2022/10/24 03:38:38;;;;;;;28.97;12.77;;;;;;;9.95;87.51;95487.16;5066559;28;20182;-83
2022/10/24 03:41:04;;;;;;;22.73;12.00;;;;;;;10.19;87.46;95530.72;5061981;28;20558;-84
2022/10/24 03:43:29;;;;;;;24.57;12.17;;;;;;;9.82;87.30;95473.94;5063151;28;20182;-84
2022/10/24 03:45:55;;;;;;;27.20;13.93;;;;;;;9.93;87.58;95491.84;5064525;28;20171;-83
2022/10/24 03:48:20;;;;;;;18.93;11.30;;;;;;;10.07;87.76;95532.19;5067860;28;20649;-84
2022/10/24 03:50:45;;;;;;;26.20;11.03;;;;;;;10.10;87.93;95544.97;5058611;28;20286;-83
2022/10/24 03:53:11;;;;;;;24.43;11.60;;;;;;;9.77;87.71;95490.28;5062938;28;20182;-82
2022/10/24 03:55:37;;;;;;;21.03;12.50;;;;;;;9.50;87.73;95443.75;5074098;28;20697;-83
2022/10/24 03:58:02;;;;;;;27.17;11.87;;;;;;;10.05;87.86;95534.19;5074191;28;20177;-83
2022/10/24 04:00:28;;;;;;;24.07;11.60;;;;;;;9.46;88.36;95443.31;5056868;28;20189;-83
2022/10/24 04:02:54;;;;;;;17.10;11.33;;;;;;;9.78;88.11;95485.81;5067778;28;20312;-83
2022/10/24 04:05:19;;;;;;;23.23;11.93;;;;;;;10.09;87.86;95533.63;5064003;28;20216;-84
2022/10/24 04:07:45;;;;;;;23.10;10.83;;;;;;;10.03;87.92;95520.44;5055670;28;20226;-85
2022/10/24 04:10:11;;;;;;;21.50;11.10;;;;;;;9.88;87.34;95502.09;5072479;28;20179;-84
2022/10/24 04:12:36;;;;;;;21.43;12.10;;;;;;;9.80;87.89;95487.28;5075066;28;20202;-84
2022/10/24 04:15:03;;;;;;;37.33;14.67;;;;;;;10.02;87.75;95538.03;5074857;28;20528;-84
2022/10/24 04:17:28;;;;;;;21.77;14.97;;;;;;;9.58;87.66;95456.78;5064900;28;20175;-85
2022/10/24 04:19:54;;;;;;;27.03;15.00;;;;;;;9.63;87.82;95458.81;5089759;28;20227;-85
2022/10/24 04:22:19;;;;;;;40.53;15.43;;;;;;;10.06;87.69;95517.41;5064357;28;20678;-85
2022/10/24 04:24:45;;;;;;;23.93;14.10;;;;;;;9.88;87.43;95498.66;5060593;28;20185;-86
2022/10/24 04:27:10;;;;;;;28.87;14.53;;;;;;;9.89;87.53;95503.72;5067810;28;20182;-84
2022/10/24 04:29:36;;;;;;;30.90;16.23;;;;;;;10.00;87.25;95521.63;5066583;28;20183;-84
2022/10/24 04:32:01;;;;;;;27.37;16.00;;;;;;;9.75;87.57;95484.41;5057898;28;20286;-83
2022/10/24 04:34:27;;;;;;;24.77;14.73;;;;;;;9.75;87.55;95497.56;5074024;28;20166;-83
2022/10/24 04:36:52;;;;;;;31.13;15.60;;;;;;;9.69;87.29;95495.66;5073861;28;20178;-83
2022/10/24 04:39:18;;;;;;;29.60;16.13;;;;;;;9.52;87.62;95468.03;5072550;28;20162;-83
2022/10/24 04:41:45;;;;;;;33.03;17.33;;;;;;;9.96;87.95;95537.97;5064568;28;20179;-83
2022/10/24 04:44:11;;;;;;;29.27;14.60;;;;;;;9.92;88.06;95539.34;5064712;28;20193;-84
2022/10/24 04:46:36;;;;;;;23.70;13.83;;;;;;;9.47;88.35;95478.28;5064474;28;20783;-84
2022/10/24 04:49:02;;;;;;;30.53;16.30;;;;;;;9.62;88.72;95486.09;5064268;28;20185;-83
2022/10/24 04:51:27;;;;;;;31.03;14.87;;;;;;;9.94;88.24;95548.69;5072831;28;20589;-84
2022/10/24 04:53:53;;;;;;;30.33;14.97;;;;;;;9.91;88.19;95548.25;5068982;28;20294;-83
2022/10/24 04:56:19;;;;;;;40.80;17.37;;;;;;;9.55;88.06;95493.94;5062176;28;20177;-83
2022/10/24 04:58:44;;;;;;;24.83;14.87;;;;;;;9.85;88.08;95544.56;5061613;28;20182;-83
2022/10/24 05:01:10;;;;;;;36.97;16.37;;;;;;;9.87;88.45;95547.81;5055303;28;20215;-83
2022/10/24 05:03:36;;;;;;;30.77;15.17;;;;;;;9.62;88.47;95500.06;5072886;28;20162;-83
2022/10/24 05:06:01;;;;;;;35.33;16.80;;;;;;;9.92;88.43;95548.06;5073584;28;20168;-84
2022/10/24 05:08:27;;;;;;;43.73;18.60;;;;;;;9.57;87.98;95486.69;5079155;28;20174;-82
2022/10/24 05:10:53;;;;;;;37.83;16.83;;;;;;;9.97;87.73;95552.75;5092122;28;20194;-83
2022/10/24 05:13:18;;;;;;;40.83;16.80;;;;;;;9.57;87.98;95483.25;5086164;28;20185;-84
2022/10/24 05:15:44;;;;;;;44.97;23.30;;;;;;;9.95;88.01;95549.47;5073140;28;20173;-84
2022/10/24 05:18:09;;;;;;;47.60;21.37;;;;;;;9.66;87.67;95490.00;5088588;28;20177;-84
2022/10/24 05:20:35;;;;;;;48.07;25.07;;;;;;;9.94;88.10;95534.72;5073308;28;20652;-84
2022/10/24 05:23:00;;;;;;;47.50;25.27;;;;;;;10.02;88.21;95550.38;5072745;28;21046;-84
2022/10/24 05:25:26;;;;;;;83.50;49.20;;;;;;;10.06;88.27;95547.16;5071501;28;20177;-84
2022/10/24 05:27:51;;;;;;;64.90;38.57;;;;;;;10.09;88.33;95552.06;5072576;28;20209;-84
2022/10/24 05:30:17;;;;;;;87.40;51.37;;;;;;;10.12;88.22;95551.66;5073349;28;20183;-84
2022/10/24 05:32:42;;;;;;;111.00;58.70;;;;;;;9.95;88.56;95526.63;5071743;28;20222;-85
2022/10/24 05:35:08;;;;;;;85.43;51.70;;;;;;;10.00;89.05;95523.44;5073196;28;20633;-81
2022/10/24 05:37:34;;;;;;;108.43;62.50;;;;;;;10.26;88.78;95552.63;5069407;28;20177;-82
2022/10/24 05:40:00;;;;;;;109.27;57.80;;;;;;;10.19;88.77;95533.34;5053626;28;20159;-83
2022/10/24 05:42:25;;;;;;;122.17;58.07;;;;;;;10.10;88.58;95508.16;5061128;28;20251;-83
2022/10/24 05:44:50;;;;;;;94.93;55.83;;;;;;;10.54;88.38;95558.69;5061182;28;20182;-82
2022/10/24 05:47:16;;;;;;;98.23;57.50;;;;;;;10.67;87.97;95565.84;5067634;28;20179;-83
2022/10/24 05:49:42;;;;;;;94.47;53.00;;;;;;;10.78;87.96;95561.84;5061002;28;20178;-83
2022/10/24 05:52:07;;;;;;;91.20;49.10;;;;;;;10.90;87.57;95573.44;5052453;28;20613;-83
2022/10/24 05:54:33;;;;;;;60.70;30.43;;;;;;;10.90;87.42;95574.25;5052164;28;20765;-83
2022/10/24 05:56:58;;;;;;;65.00;36.83;;;;;;;11.01;87.42;95574.72;5052438;28;20228;-83
2022/10/24 05:59:24;;;;;;;54.00;28.60;;;;;;;10.89;86.90;95546.31;5052514;28;20289;-83
2022/10/24 06:01:49;;;;;;;58.77;29.80;;;;;;;10.80;86.49;95510.63;5052691;28;20167;-82
2022/10/24 06:04:15;;;;;;;44.97;25.77;;;;;;;10.92;86.80;95529.28;5051407;28;20175;-83
2022/10/24 06:06:43;;;;;;;58.63;31.60;;;;;;;11.41;86.56;95592.34;5052318;28;20232;-83
2022/10/24 06:09:10;;;;;;;48.60;22.93;;;;;;;11.12;86.07;95529.38;5055797;28;20174;-82
2022/10/24 06:11:35;;;;;;;36.37;20.77;;;;;;;11.48;85.29;95577.38;5065147;28;20195;-82
2022/10/24 06:14:02;;;;;;;30.03;14.43;;;;;;;11.66;84.83;95592.63;5062208;28;20191;-84
2022/10/24 06:16:29;;;;;;;20.37;13.03;;;;;;;11.74;84.47;95589.81;5066582;28;20560;-82
2022/10/24 06:18:55;;;;;;;21.63;11.30;;;;;;;11.83;84.42;95577.28;5067171;28;20166;-81
2022/10/24 06:21:20;;;;;;;22.83;10.50;;;;;;;11.84;84.30;95577.06;5065840;28;20166;-83
2022/10/24 06:23:46;;;;;;;19.53;10.17;;;;;;;11.71;84.04;95543.53;5073654;28;20193;-83
2022/10/24 06:26:13;;;;;;;25.27;12.17;;;;;;;11.96;83.46;95558.81;5076402;28;20586;-83
2022/10/24 06:28:40;;;;;;;22.33;11.30;;;;;;;12.28;82.89;95594.97;5064892;28;20617;-84
2022/10/24 06:31:07;;;;;;;26.27;11.43;;;;;;;12.45;82.75;95595.38;5065773;28;20202;-83
2022/10/24 06:33:33;;;;;;;22.93;11.67;;;;;;;12.61;82.19;95580.94;5082572;28;20174;-84
2022/10/24 06:36:01;;;;;;;19.23;10.60;;;;;;;12.89;81.32;95585.97;5076301;28;20544;-84
2022/10/24 06:38:26;;;;;;;18.70;10.37;;;;;;;12.88;80.68;95564.03;5073700;28;20181;-84
2022/10/24 06:40:52;;;;;;;22.30;8.93;;;;;;;13.32;79.34;95602.16;5074431;28;20163;-84
2022/10/24 06:43:18;;;;;;;17.17;9.80;;;;;;;13.17;78.47;95542.41;5075644;28;20232;-83
2022/10/24 06:45:44;;;;;;;17.13;8.30;;;;;;;13.82;76.79;95609.25;5091274;28;20265;-84
2022/10/24 06:48:10;;;;;;;17.73;9.00;;;;;;;14.05;76.69;95613.19;5076058;28;20254;-83
2022/10/24 06:50:39;;;;;;;18.47;9.00;;;;;;;14.28;75.62;95616.88;5075781;28;20181;-84
2022/10/24 06:53:08;;;;;;;17.37;8.00;;;;;;;14.12;74.38;95556.50;5058714;28;20615;-81
2022/10/24 06:55:37;;;;;;;15.53;7.27;;;;;;;14.73;73.04;95625.53;5058704;28;20226;-84
2022/10/24 06:58:03;;;;;;;13.23;6.90;;;;;;;14.83;72.62;95603.03;5068012;28;20171;-84
2022/10/24 07:00:29;;;;;;;17.27;7.33;;;;;;;15.07;72.22;95602.16;5064901;28;20186;-82
2022/10/24 07:02:54;;;;;;;14.03;6.70;;;;;;;15.18;71.14;95582.88;5066153;28;20162;-83
2022/10/24 07:05:19;;;;;;;17.80;6.73;;;;;;;15.35;70.46;95572.47;5066084;28;20178;-82
2022/10/24 07:07:45;;;;;;;16.77;5.97;;;;;;;15.64;70.21;95577.03;5066457;28;20171;-85
2022/10/24 07:10:13;;;;;;;10.88;6.35;;;;;;;15.69;68.77;95557.78;5065026;28;20174;-82
2022/10/24 07:12:39;;;;;;;16.67;6.43;;;;;;;16.33;68.19;95620.81;5063253;28;20554;-82
2022/10/24 07:15:05;;;;;;;14.85;6.32;;;;;;;16.52;67.58;95624.19;5063603;28;20174;-81
2022/10/24 07:17:30;;;;;;;10.52;6.30;;;;;;;16.82;67.47;95624.16;5054999;28;20653;-82
2022/10/24 07:19:56;;;;;;;10.38;5.53;;;;;;;17.07;64.35;95618.59;5063985;28;20175;-83
2022/10/24 07:22:23;;;;;;;14.68;5.63;;;;;;;17.25;64.10;95615.81;5068117;28;20163;-82
2022/10/24 07:24:53;;;;;;;11.00;5.75;;;;;;;17.20;62.96;95573.13;5066002;28;20216;-82
2022/10/24 07:27:19;;;;;;;11.20;5.72;;;;;;;17.66;62.12;95618.28;5065353;28;20641;-82
2022/10/24 07:29:44;;;;;;;13.38;6.50;;;;;;;17.96;62.42;95614.63;5074643;28;20178;-83
2022/10/24 07:32:10;;;;;;;14.23;5.35;;;;;;;17.91;59.61;95567.38;5065509;28;20212;-83
2022/10/24 07:34:35;;;;;;;14.05;5.93;;;;;;;17.98;60.57;95568.06;5074553;28;20151;-84
2022/10/24 07:37:03;;;;;;;11.68;5.72;;;;;;;18.45;59.63;95608.56;5057972;28;20183;-84
2022/10/24 07:39:28;;;;;;;11.50;6.07;;;;;;;18.47;59.13;95603.81;5054087;28;20170;-86
2022/10/24 07:41:54;;;;;;;15.43;6.63;;;;;;;18.16;58.18;95550.22;5054581;28;20560;-85
2022/10/24 07:44:19;;;;;;;14.05;6.40;;;;;;;18.78;58.51;95618.47;5055766;28;20260;-84
2022/10/24 07:46:44;;;;;;;9.63;5.78;;;;;;;18.78;57.64;95589.13;5063335;28;20174;-87
2022/10/24 07:49:10;;;;;;;16.55;6.20;;;;;;;18.78;58.21;95570.44;5062208;28;20556;-84
2022/10/24 07:51:35;;;;;;;10.32;5.72;;;;;;;19.24;56.38;95616.50;5059751;28;20198;-87
2022/10/24 07:54:01;;;;;;;12.35;5.35;;;;;;;18.85;56.40;95565.75;5066286;28;20226;-86
2022/10/24 07:56:26;;;;;;;11.48;5.22;;;;;;;19.18;57.90;95590.78;5062640;28;20193;-83
2022/10/24 07:58:52;;;;;;;9.98;5.13;;;;;;;19.55;56.66;95617.72;5056422;28;20967;-84
2022/10/24 08:01:20;;;;;;;10.88;5.75;;;;;;;19.70;55.72;95603.75;5069723;28;20169;-83
2022/10/24 08:03:46;;;;;;;11.30;6.13;;;;;;;19.82;56.01;95599.88;5068261;28;20171;-83
2022/10/24 08:06:16;;;;;;;10.13;5.72;;;;;;;20.17;54.73;95602.13;5060174;28;20179;-83
2022/10/24 08:08:42;;;;;;;15.23;5.90;;;;;;;20.15;53.54;95558.00;5055625;28;20258;-83
2022/10/24 08:11:22;;;;;;;14.25;6.60;;;;;;;20.47;53.87;95577.59;5062205;28;20205;-81
2022/10/24 08:13:49;;;;;;;12.95;6.18;;;;;;;20.36;52.18;95529.59;5069554;28;20670;-82
2022/10/24 08:16:16;;;;;;;16.33;7.15;;;;;;;20.62;52.79;95582.25;5062288;28;20175;-82
2022/10/24 08:18:42;;;;;;;15.88;7.13;;;;;;;20.56;52.63;95561.88;5061880;28;20206;-83
2022/10/24 08:21:11;;;;;;;13.10;7.22;;;;;;;20.70;52.10;95595.97;5055982;28;20638;-83
2022/10/24 08:23:39;;;;;;;18.92;7.78;;;;;;;20.63;51.27;95592.69;5050883;28;20213;-85
2022/10/24 08:26:06;;;;;;;16.45;6.97;;;;;;;20.37;51.94;95571.34;5063945;28;20177;-82
2022/10/24 08:28:32;;;;;;;18.70;7.60;;;;;;;20.58;51.75;95571.22;5062974;28;20538;-83
2022/10/24 08:31:06;;;;;;;20.05;7.63;;;;;;;20.87;51.01;95578.94;5064973;28;20259;-83
2022/10/24 08:33:33;;;;;;;19.08;8.38;;;;;;;20.63;51.03;95525.00;5063614;28;20174;-84
2022/10/24 08:36:01;;;;;;;17.38;8.20;;;;;;;20.96;50.35;95577.41;5061634;28;20168;-82
2022/10/24 08:38:27;;;;;;;20.38;8.18;;;;;;;20.94;50.92;95583.00;5060682;28;20229;-82
2022/10/24 08:40:53;;;;;;;11.73;7.13;;;;;;;20.60;50.92;95579.81;5061628;28;20179;-81
2022/10/24 08:43:19;;;;;;;26.65;8.55;;;;;;;20.52;52.18;95544.69;5051771;28;20202;-85
2022/10/24 08:46:11;;;;;;;16.33;9.18;;;;;;;20.65;50.99;95549.63;5063458;28;20182;-85
2022/10/24 08:48:47;;;;;;;16.35;7.60;;;;;;;20.77;51.58;95563.63;5064960;28;20689;-85
2022/10/24 08:51:30;;;;;;;21.88;8.85;;;;;;;20.65;51.72;95523.69;5088331;28;20234;-84
2022/10/24 08:53:58;;;;;;;19.77;9.18;;;;;;;20.07;50.98;95472.91;5070376;28;20693;-85
2022/10/24 08:56:28;;;;;;;15.70;9.68;;;;;;;20.73;50.91;95533.09;5073882;28;20562;-86
2022/10/24 08:58:55;;;;;;;18.95;9.43;;;;;;;21.08;53.18;95557.41;5054421;28;20269;-85
2022/10/24 09:01:31;;;;;;;22.50;9.65;;;;;;;21.24;51.02;95558.34;5072453;28;20232;-84
2022/10/24 09:04:02;;;;;;;21.48;9.18;;;;;;;21.09;50.04;95510.03;5071566;28;20375;-84
2022/10/24 09:06:30;;;;;;;19.13;9.90;;;;;;;21.46;49.79;95558.97;5072943;28;20614;-84
2022/10/24 09:09:06;;;;;;;19.48;9.82;;;;;;;21.20;49.96;95500.97;5079480;28;20201;-85
2022/10/24 09:11:51;;;;;;;25.80;8.98;;;;;;;21.60;50.21;95555.81;5081678;28;20202;-85
2022/10/24 09:14:18;;;;;;;19.20;8.50;;;;;;;21.69;49.33;95552.38;5082547;28;20210;-85
2022/10/24 09:16:48;;;;;;;16.73;8.80;;;;;;;21.74;49.29;95552.38;5079667;28;20182;-85
2022/10/24 09:19:17;;;;;;;19.88;7.85;;;;;;;20.99;49.32;95502.75;5082694;28;20194;-85
2022/10/24 09:21:45;;;;;;;13.63;7.18;;;;;;;21.22;50.43;95551.63;5070501;28;20181;-85
2022/10/24 09:24:25;;;;;;;15.75;7.50;;;;;;;20.52;50.14;95446.53;5062326;28;20654;-86
2022/10/24 09:26:51;;;;;;;19.83;8.05;;;;;;;21.07;50.25;95546.97;5048006;28;20261;-87
2022/10/24 09:29:17;;;;;;;14.10;8.60;;;;;;;20.78;50.71;95479.59;5068499;28;20182;-87
2022/10/24 09:31:48;;;;;;;15.88;7.70;;;;;;;20.80;51.36;95461.41;5070343;28;20676;-85
2022/10/24 09:34:16;;;;;;;20.98;9.45;;;;;;;21.13;50.07;95519.13;5051694;28;20171;-86
2022/10/24 09:36:53;;;;;;;19.25;8.40;;;;;;;20.22;50.17;95352.72;5062130;28;20627;-86
2022/10/24 09:39:26;;;;;;;13.18;8.23;;;;;;;21.51;50.65;95535.94;5065057;28;20328;-85
2022/10/24 09:41:55;;;;;;;20.83;8.88;;;;;;;20.71;50.10;95391.53;5075726;28;20236;-84
2022/10/24 09:44:37;;;;;;;19.65;8.90;;;;;;;21.02;49.61;95439.81;5069847;28;20238;-82
2022/10/24 09:47:08;;;;;;;19.60;8.75;;;;;;;21.01;49.54;95438.22;5066731;28;20304;-84
2022/10/24 09:49:47;;;;;;;19.77;8.77;;;;;;;20.90;50.35;95428.53;5067987;28;20167;-84
2022/10/24 09:52:21;;;;;;;19.67;8.23;;;;;;;20.73;50.00;95396.63;5066227;28;20276;-84
2022/10/24 09:55:17;;;;;;;15.13;8.90;;;;;;;21.26;49.71;95486.56;5058831;28;20602;-83
2022/10/24 09:58:12;;;;;;;15.02;7.88;;;;;;;21.01;50.41;95452.44;5060203;28;20190;-83
2022/10/24 10:01:00;;;;;;;20.17;8.60;;;;;;;20.31;51.43;95357.31;5059185;28;20195;-86
2022/10/24 10:03:34;;;;;;;16.52;8.50;;;;;;;20.95;52.93;95466.03;5052506;28;20183;-84
2022/10/24 10:06:20;;;;;;;17.70;9.00;;;;;;;20.58;51.33;95394.66;5050529;28;20244;-84
2022/10/24 10:08:56;;;;;;;15.30;7.85;;;;;;;20.48;51.33;95369.72;5049008;28;20187;-85
2022/10/24 10:11:36;;;;;;;15.13;8.02;;;;;;;21.01;50.99;95448.94;5058682;28;20194;-85
2022/10/24 10:14:02;;;;;;;20.70;8.85;;;;;;;20.59;51.00;95379.41;5056542;28;20277;-85
2022/10/24 10:16:31;;;;;;;21.65;8.10;;;;;;;20.36;50.74;95332.50;5050221;28;20693;-85
2022/10/24 10:19:38;;;;;;;17.17;8.38;;;;;;;20.97;50.70;95454.00;5050171;28;20212;-83
2022/10/24 10:22:39;;;;;;;;;;;;;;;;;;;;;
2022/10/24 10:25:35;;;;;;;16.70;7.63;;;;;;;20.65;52.99;95415.84;5044505;28;20170;-84
2022/10/24 10:28:18;;;;;;;16.95;8.32;;;;;;;20.54;51.46;95387.41;5050149;28;20246;-84
2022/10/24 10:30:59;;;;;;;16.25;8.25;;;;;;;20.15;52.52;95336.88;5076743;28;20186;-84
2022/10/24 10:34:03;;;;;;;17.52;8.68;;;;;;;21.10;51.21;95488.31;5058158;28;20172;-86
2022/10/24 10:37:12;;;;;;;16.80;7.80;;;;;;;20.90;52.23;95461.47;5057945;28;20179;-84
2022/10/24 10:39:50;;;;;;;17.35;8.15;;;;;;;21.08;51.96;95478.97;5034138;28;20248;-85
2022/10/24 10:42:36;;;;;;;15.70;8.02;;;;;;;21.14;51.73;95483.25;5049764;28;20171;-83
2022/10/24 10:45:15;;;;;;;16.33;8.27;;;;;;;21.13;52.11;95472.81;5052425;28;20194;-83
2022/10/24 10:48:08;;;;;;;19.88;8.13;;;;;;;20.37;51.28;95339.44;5048220;28;20179;-84
2022/10/24 10:50:38;;;;;;;26.88;9.35;;;;;;;20.50;52.10;95362.22;5055569;28;20163;-84
2022/10/24 10:53:23;;;;;;;19.17;8.73;;;;;;;20.68;52.07;95375.97;5054268;28;20264;-85
2022/10/24 10:56:19;;;;;;;20.77;8.80;;;;;;;21.23;53.22;95454.94;5055379;28;20227;-85
2022/10/24 10:58:59;;;;;;;12.40;7.78;;;;;;;21.09;52.12;95422.47;5050179;28;20163;-84
2022/10/24 11:01:52;;;;;;;17.02;8.20;;;;;;;21.06;51.17;95414.94;5071105;28;20177;-84
2022/10/24 11:04:35;;;;;;;15.18;8.23;;;;;;;21.01;54.16;95420.31;5063748;28;20175;-84
2022/10/24 11:07:31;;;;;;;14.48;8.27;;;;;;;21.16;52.95;95438.28;5062814;28;20213;-85
2022/10/24 11:10:07;;;;;;;15.77;7.07;;;;;;;20.93;53.65;95393.22;5072524;28;20553;-84
2022/10/24 11:12:39;;;;;;;21.65;8.13;;;;;;;21.29;52.42;95434.31;5066648;28;20210;-85
2022/10/24 11:15:25;;;;;;;18.85;8.35;;;;;;;21.39;52.83;95435.16;5067901;28;20174;-85
2022/10/24 11:18:11;;;;;;;14.10;7.57;;;;;;;21.32;51.89;95413.19;5080514;28;20261;-84
2022/10/24 11:20:43;;;;;;;13.95;7.10;;;;;;;21.41;51.60;95427.69;5065620;28;20179;-84
2022/10/24 11:23:08;;;;;;;19.52;7.50;;;;;;;21.52;51.59;95430.38;5076236;28;20317;-86
2022/10/24 11:25:39;;;;;;;17.23;7.07;;;;;;;21.14;51.59;95356.59;5051826;28;20717;-87
2022/10/24 11:28:28;;;;;;;16.83;6.82;;;;;;;21.63;53.78;95421.28;5060711;28;20171;-87
2022/10/24 11:31:09;;;;;;;23.50;7.78;;;;;;;21.48;51.21;95383.75;5061883;28;20183;-86
2022/10/24 11:33:46;;;;;;;18.27;6.05;;;;;;;21.51;51.36;95372.50;5066404;28;20210;-84
2022/10/24 11:36:34;;;;;;;13.63;6.65;;;;;;;21.71;51.10;95404.66;5072707;28;20198;-86
2022/10/24 11:39:09;;;;;;;23.92;7.30;;;;;;;21.81;53.00;95410.84;5046349;28;20275;-86
2022/10/24 11:41:45;;;;;;;15.85;7.05;;;;;;;21.50;50.20;95342.22;5052648;28;20174;-85